sensor_id;sensor_type;location;lat;lon;timestamp;pressure;altitude;pressure_sealevel;temperature;humidity
16190;BME280;41754;51.498;7.540;2023-07-08T00:00:17;100529.81;;;17.93;54.81
16190;BME280;41754;51.498;7.540;2023-07-08T00:02:47;100525.19;;;17.95;54.84
16190;BME280;41754;51.498;7.540;2023-07-08T00:05:18;100526.16;;;17.94;54.96
16190;BME280;41754;51.498;7.540;2023-07-08T00:07:47;100521.81;;;17.93;55.00
16190;BME280;41754;51.498;7.540;2023-07-08T00:10:17;100512.84;;;17.94;55.11
16190;BME280;41754;51.498;7.540;2023-07-08T00:12:49;100516.22;;;17.96;55.13
16190;BME280;41754;51.498;7.540;2023-07-08T00:15:18;100510.88;;;17.96;55.23
16190;BME280;41754;51.498;7.540;2023-07-08T00:17:48;100513.28;;;17.99;55.30
16190;BME280;41754;51.498;7.540;2023-07-08T00:20:19;100516.91;;;17.98;55.70
16190;BME280;41754;51.498;7.540;2023-07-08T00:22:48;100506.69;;;18.03;55.73
16190;BME280;41754;51.498;7.540;2023-07-08T00:25:17;100501.06;;;18.06;55.86
16190;BME280;41754;51.498;7.540;2023-07-08T00:27:48;100504.25;;;18.10;55.96
16190;BME280;41754;51.498;7.540;2023-07-08T00:30:20;100503.97;;;18.13;56.27
16190;BME280;41754;51.498;7.540;2023-07-08T00:32:49;100503.16;;;18.12;55.86
16190;BME280;41754;51.498;7.540;2023-07-08T00:35:21;100500.06;;;18.17;55.89
16190;BME280;41754;51.498;7.540;2023-07-08T00:37:51;100502.19;;;18.13;56.19
16190;BME280;41754;51.498;7.540;2023-07-08T00:40:21;100497.84;;;18.12;56.55
16190;BME280;41754;51.498;7.540;2023-07-08T00:42:53;100497.53;;;18.15;56.14
16190;BME280;41754;51.498;7.540;2023-07-08T00:45:38;100497.25;;;18.19;55.61
16190;BME280;41754;51.498;7.540;2023-07-08T00:48:24;100503.97;;;18.23;55.69
16190;BME280;41754;51.498;7.540;2023-07-08T00:50:53;100505.78;;;18.22;56.16
16190;BME280;41754;51.498;7.540;2023-07-08T00:53:26;100501.72;;;18.18;56.34
16190;BME280;41754;51.498;7.540;2023-07-08T00:55:59;100508.19;;;18.15;56.36
16190;BME280;41754;51.498;7.540;2023-07-08T00:58:33;100502.47;;;18.10;56.22
16190;BME280;41754;51.498;7.540;2023-07-08T01:01:04;100502.19;;;18.13;56.07
16190;BME280;41754;51.498;7.540;2023-07-08T01:03:40;100502.59;;;18.19;56.22
16190;BME280;41754;51.498;7.540;2023-07-08T01:06:11;100491.06;;;18.18;56.04
16190;BME280;41754;51.498;7.540;2023-07-08T01:08:39;100495.84;;;18.14;56.19
16190;BME280;41754;51.498;7.540;2023-07-08T01:11:07;100490.25;;;18.08;56.21
16190;BME280;41754;51.498;7.540;2023-07-08T01:13:39;100487.19;;;18.03;56.42
16190;BME280;41754;51.498;7.540;2023-07-08T01:16:09;100482.72;;;18.03;56.45
16190;BME280;41754;51.498;7.540;2023-07-08T01:18:38;100477.97;;;17.97;56.47
16190;BME280;41754;51.498;7.540;2023-07-08T01:21:29;100472.94;;;17.94;56.50
16190;BME280;41754;51.498;7.540;2023-07-08T01:24:01;100474.91;;;17.92;56.70
16190;BME280;41754;51.498;7.540;2023-07-08T01:26:33;100475.72;;;17.83;56.63
16190;BME280;41754;51.498;7.540;2023-07-08T01:29:03;100465.50;;;17.78;56.83
16190;BME280;41754;51.498;7.540;2023-07-08T01:31:31;100459.22;;;17.69;57.12
16190;BME280;41754;51.498;7.540;2023-07-08T01:33:59;100461.47;;;17.64;57.47
16190;BME280;41754;51.498;7.540;2023-07-08T01:36:30;100459.66;;;17.55;58.14
16190;BME280;41754;51.498;7.540;2023-07-08T01:39:00;100461.50;;;17.45;58.77
16190;BME280;41754;51.498;7.540;2023-07-08T01:41:29;100460.78;;;17.42;58.53
16190;BME280;41754;51.498;7.540;2023-07-08T01:43:57;100456.72;;;17.38;58.45
16190;BME280;41754;51.498;7.540;2023-07-08T01:46:26;100456.44;;;17.32;58.85
16190;BME280;41754;51.498;7.540;2023-07-08T01:48:57;100453.91;;;17.20;59.71
16190;BME280;41754;51.498;7.540;2023-07-08T01:51:25;100457.13;;;17.04;59.88
16190;BME280;41754;51.498;7.540;2023-07-08T01:53:54;100463.16;;;17.06;59.65
16190;BME280;41754;51.498;7.540;2023-07-08T01:56:23;100456.72;;;16.99;60.18
16190;BME280;41754;51.498;7.540;2023-07-08T01:58:51;100449.13;;;16.95;60.56
16190;BME280;41754;51.498;7.540;2023-07-08T02:01:22;100438.34;;;16.86;60.77
16190;BME280;41754;51.498;7.540;2023-07-08T02:03:51;100437.53;;;16.86;60.99
16190;BME280;41754;51.498;7.540;2023-07-08T02:06:20;100440.19;;;16.86;61.10
16190;BME280;41754;51.498;7.540;2023-07-08T02:08:48;100427.25;;;16.81;61.19
16190;BME280;41754;51.498;7.540;2023-07-08T02:11:16;100428.81;;;16.74;61.55
16190;BME280;41754;51.498;7.540;2023-07-08T02:13:46;100436.91;;;16.73;61.88
16190;BME280;41754;51.498;7.540;2023-07-08T02:16:14;100431.44;;;16.64;61.77
16190;BME280;41754;51.498;7.540;2023-07-08T02:18:42;100428.34;;;16.59;61.94
16190;BME280;41754;51.498;7.540;2023-07-08T02:21:10;100429.56;;;16.55;62.31
16190;BME280;41754;51.498;7.540;2023-07-08T02:23:39;100427.19;;;16.42;62.44
16190;BME280;41754;51.498;7.540;2023-07-08T02:26:07;100422.97;;;16.40;62.81
16190;BME280;41754;51.498;7.540;2023-07-08T02:28:35;100425.44;;;16.31;63.14
16190;BME280;41754;51.498;7.540;2023-07-08T02:31:04;100424.31;;;16.24;63.70
16190;BME280;41754;51.498;7.540;2023-07-08T02:33:32;100426.09;;;16.14;64.10
16190;BME280;41754;51.498;7.540;2023-07-08T02:36:00;100424.13;;;16.16;64.01
16190;BME280;41754;51.498;7.540;2023-07-08T02:38:28;100426.09;;;16.14;63.84
16190;BME280;41754;51.498;7.540;2023-07-08T02:40:57;100423.50;;;16.03;64.30
16190;BME280;41754;51.498;7.540;2023-07-08T02:43:25;100426.69;;;15.97;64.67
16190;BME280;41754;51.498;7.540;2023-07-08T02:45:53;100427.75;;;15.84;65.20
16190;BME280;41754;51.498;7.540;2023-07-08T02:48:22;100428.25;;;15.78;65.74
16190;BME280;41754;51.498;7.540;2023-07-08T02:50:50;100430.44;;;15.73;66.47
16190;BME280;41754;51.498;7.540;2023-07-08T02:53:18;100427.56;;;15.76;66.36
16190;BME280;41754;51.498;7.540;2023-07-08T02:55:46;100426.50;;;15.67;66.86
16190;BME280;41754;51.498;7.540;2023-07-08T02:58:15;100430.06;;;15.77;66.22
16190;BME280;41754;51.498;7.540;2023-07-08T03:00:43;100435.50;;;15.76;66.10
16190;BME280;41754;51.498;7.540;2023-07-08T03:03:11;100430.44;;;15.73;66.15
16190;BME280;41754;51.498;7.540;2023-07-08T03:05:40;100431.03;;;15.76;65.43
16190;BME280;41754;51.498;7.540;2023-07-08T03:08:08;100432.72;;;15.77;65.25
16190;BME280;41754;51.498;7.540;2023-07-08T03:10:36;100427.28;;;15.79;64.86
16190;BME280;41754;51.498;7.540;2023-07-08T03:13:04;100421.00;;;15.80;65.05
16190;BME280;41754;51.498;7.540;2023-07-08T03:15:32;100421.44;;;15.85;65.26
16190;BME280;41754;51.498;7.540;2023-07-08T03:18:01;100428.69;;;15.83;65.28
16190;BME280;41754;51.498;7.540;2023-07-08T03:20:30;100430.06;;;15.77;65.38
16190;BME280;41754;51.498;7.540;2023-07-08T03:23:00;100430.78;;;15.80;65.28
16190;BME280;41754;51.498;7.540;2023-07-08T03:25:28;100428.25;;;15.78;65.39
16190;BME280;41754;51.498;7.540;2023-07-08T03:27:56;100428.28;;;15.67;65.79
16190;BME280;41754;51.498;7.540;2023-07-08T03:30:26;100423.94;;;15.77;65.27
16190;BME280;41754;51.498;7.540;2023-07-08T03:32:54;100422.81;;;15.80;65.52
16190;BME280;41754;51.498;7.540;2023-07-08T03:35:22;100411.50;;;15.77;65.70
16190;BME280;41754;51.498;7.540;2023-07-08T03:37:51;100414.72;;;15.81;65.51
16190;BME280;41754;51.498;7.540;2023-07-08T03:40:21;100415.56;;;15.82;65.94
16190;BME280;41754;51.498;7.540;2023-07-08T03:42:49;100419.34;;;15.79;65.83
16190;BME280;41754;51.498;7.540;2023-07-08T03:45:17;100415.34;;;15.73;66.06
16190;BME280;41754;51.498;7.540;2023-07-08T03:47:44;100414.50;;;15.73;66.23
16190;BME280;41754;51.498;7.540;2023-07-08T03:50:17;100418.63;;;15.77;65.89
16190;BME280;41754;51.498;7.540;2023-07-08T03:52:46;100419.59;;;15.76;65.67
16190;BME280;41754;51.498;7.540;2023-07-08T03:55:15;100427.31;;;15.68;66.45
16190;BME280;41754;51.498;7.540;2023-07-08T03:57:44;100434.69;;;15.75;66.02
16190;BME280;41754;51.498;7.540;2023-07-08T04:00:13;100434.41;;;15.79;65.89
16190;BME280;41754;51.498;7.540;2023-07-08T04:02:41;100431.22;;;15.64;66.71
16190;BME280;41754;51.498;7.540;2023-07-08T04:05:16;100437.38;;;15.85;66.04
16190;BME280;41754;51.498;7.540;2023-07-08T04:07:44;100434.19;;;15.91;65.73
16190;BME280;41754;51.498;7.540;2023-07-08T04:10:12;100430.97;;;15.88;65.75
16190;BME280;41754;51.498;7.540;2023-07-08T04:12:40;100431.84;;;15.98;65.16
16190;BME280;41754;51.498;7.540;2023-07-08T04:15:11;100432.16;;;16.05;64.85
16190;BME280;41754;51.498;7.540;2023-07-08T04:17:43;100442.09;;;16.03;65.00
16190;BME280;41754;51.498;7.540;2023-07-08T04:20:15;100436.06;;;16.01;65.06
16190;BME280;41754;51.498;7.540;2023-07-08T04:22:45;100440.97;;;16.05;65.21
16190;BME280;41754;51.498;7.540;2023-07-08T04:25:13;100432.34;;;16.13;64.86
16190;BME280;41754;51.498;7.540;2023-07-08T04:27:41;100441.59;;;16.19;64.46
16190;BME280;41754;51.498;7.540;2023-07-08T04:30:20;100444.47;;;16.37;63.79
16190;BME280;41754;51.498;7.540;2023-07-08T04:32:50;100443.38;;;16.39;63.85
16190;BME280;41754;51.498;7.540;2023-07-08T04:35:18;100445.06;;;16.50;63.14
16190;BME280;41754;51.498;7.540;2023-07-08T04:37:46;100440.75;;;16.49;63.07
16190;BME280;41754;51.498;7.540;2023-07-08T04:40:19;100444.25;;;16.49;63.00
16190;BME280;41754;51.498;7.540;2023-07-08T04:42:47;100452.34;;;16.48;62.68
16190;BME280;41754;51.498;7.540;2023-07-08T04:45:19;100447.16;;;16.46;63.04
16190;BME280;41754;51.498;7.540;2023-07-08T04:47:48;100449.78;;;16.37;63.28
16190;BME280;41754;51.498;7.540;2023-07-08T04:50:20;100453.44;;;16.45;63.20
16190;BME280;41754;51.498;7.540;2023-07-08T04:52:48;100447.88;;;16.48;63.41
16190;BME280;41754;51.498;7.540;2023-07-08T04:55:16;100458.44;;;16.39;63.95
16190;BME280;41754;51.498;7.540;2023-07-08T04:57:45;100450.91;;;16.34;64.22
16190;BME280;41754;51.498;7.540;2023-07-08T05:00:15;100455.25;;;16.45;64.03
16190;BME280;41754;51.498;7.540;2023-07-08T05:02:45;100457.09;;;16.44;63.94
16190;BME280;41754;51.498;7.540;2023-07-08T05:05:13;100456.94;;;16.46;63.70
16190;BME280;41754;51.498;7.540;2023-07-08T05:07:41;100457.97;;;16.55;63.84
16190;BME280;41754;51.498;7.540;2023-07-08T05:10:10;100454.88;;;16.49;63.94
16190;BME280;41754;51.498;7.540;2023-07-08T05:12:38;100456.41;;;16.52;64.07
16190;BME280;41754;51.498;7.540;2023-07-08T05:15:06;100453.50;;;16.65;63.89
16190;BME280;41754;51.498;7.540;2023-07-08T05:17:34;100460.81;;;16.73;63.76
16190;BME280;41754;51.498;7.540;2023-07-08T05:20:05;100459.97;;;16.82;63.35
16190;BME280;41754;51.498;7.540;2023-07-08T05:22:34;100455.56;;;16.92;62.96
16190;BME280;41754;51.498;7.540;2023-07-08T05:25:03;100460.47;;;16.97;62.74
16190;BME280;41754;51.498;7.540;2023-07-08T05:27:32;100460.88;;;17.02;62.70
16190;BME280;41754;51.498;7.540;2023-07-08T05:30:00;100454.75;;;17.01;63.25
16190;BME280;41754;51.498;7.540;2023-07-08T05:32:28;100455.75;;;17.20;62.66
16190;BME280;41754;51.498;7.540;2023-07-08T05:34:56;100462.03;;;17.38;62.47
16190;BME280;41754;51.498;7.540;2023-07-08T05:37:26;100465.41;;;17.50;62.04
16190;BME280;41754;51.498;7.540;2023-07-08T05:39:55;100466.22;;;17.60;62.28
16190;BME280;41754;51.498;7.540;2023-07-08T05:42:24;100452.91;;;17.90;61.44
16190;BME280;41754;51.498;7.540;2023-07-08T05:44:52;100459.31;;;18.07;60.69
16190;BME280;41754;51.498;7.540;2023-07-08T05:47:21;100456.03;;;18.23;60.27
16190;BME280;41754;51.498;7.540;2023-07-08T05:49:49;100449.19;;;18.48;59.71
16190;BME280;41754;51.498;7.540;2023-07-08T05:52:17;100441.78;;;18.69;58.80
16190;BME280;41754;51.498;7.540;2023-07-08T05:54:46;100445.59;;;18.95;57.69
16190;BME280;41754;51.498;7.540;2023-07-08T05:57:14;100445.47;;;19.14;57.38
16190;BME280;41754;51.498;7.540;2023-07-08T05:59:42;100441.94;;;19.32;56.92
16190;BME280;41754;51.498;7.540;2023-07-08T06:02:11;100446.06;;;19.44;56.54
16190;BME280;41754;51.498;7.540;2023-07-08T06:04:39;100449.56;;;19.62;56.10
16190;BME280;41754;51.498;7.540;2023-07-08T06:07:07;100449.53;;;19.80;55.47
16190;BME280;41754;51.498;7.540;2023-07-08T06:09:36;100444.44;;;19.95;55.31
16190;BME280;41754;51.498;7.540;2023-07-08T06:12:06;100440.41;;;20.17;54.84
16190;BME280;41754;51.498;7.540;2023-07-08T06:14:34;100447.66;;;20.33;54.10
16190;BME280;41754;51.498;7.540;2023-07-08T06:17:02;100441.06;;;20.54;53.78
16190;BME280;41754;51.498;7.540;2023-07-08T06:19:30;100440.16;;;20.71;53.26
16190;BME280;41754;51.498;7.540;2023-07-08T06:21:58;100438.53;;;20.87;52.72
16190;BME280;41754;51.498;7.540;2023-07-08T06:24:45;100447.25;;;21.05;52.30
16190;BME280;41754;51.498;7.540;2023-07-08T06:27:15;100442.75;;;21.22;51.95
16190;BME280;41754;51.498;7.540;2023-07-08T06:29:44;100440.75;;;21.41;51.60
16190;BME280;41754;51.498;7.540;2023-07-08T06:32:12;100444.31;;;21.58;50.99
16190;BME280;41754;51.498;7.540;2023-07-08T06:34:40;100443.31;;;21.75;50.06
16190;BME280;41754;51.498;7.540;2023-07-08T06:37:08;100443.41;;;21.90;48.26
16190;BME280;41754;51.498;7.540;2023-07-08T06:39:36;100442.22;;;22.09;48.03
16190;BME280;41754;51.498;7.540;2023-07-08T06:42:08;100440.16;;;22.28;47.10
16190;BME280;41754;51.498;7.540;2023-07-08T06:44:43;100438.09;;;22.46;45.92
16190;BME280;41754;51.498;7.540;2023-07-08T06:47:20;100436.16;;;22.63;44.56
16190;BME280;41754;51.498;7.540;2023-07-08T06:49:48;100437.91;;;22.79;45.05
16190;BME280;41754;51.498;7.540;2023-07-08T06:52:16;100444.69;;;23.06;44.17
16190;BME280;41754;51.498;7.540;2023-07-08T06:54:44;100446.16;;;23.09;43.69
16190;BME280;41754;51.498;7.540;2023-07-08T06:57:11;100442.06;;;23.21;44.31
16190;BME280;41754;51.498;7.540;2023-07-08T06:59:39;100448.25;;;23.45;43.97
16190;BME280;41754;51.498;7.540;2023-07-08T07:02:09;100450.13;;;23.59;43.02
16190;BME280;41754;51.498;7.540;2023-07-08T07:04:37;100447.66;;;23.73;42.74
16190;BME280;41754;51.498;7.540;2023-07-08T07:07:05;100442.50;;;23.86;42.76
16190;BME280;41754;51.498;7.540;2023-07-08T07:09:33;100451.53;;;23.93;42.76
16190;BME280;41754;51.498;7.540;2023-07-08T07:12:01;100443.00;;;24.04;41.65
16190;BME280;41754;51.498;7.540;2023-07-08T07:14:29;100441.03;;;24.28;41.22
16190;BME280;41754;51.498;7.540;2023-07-08T07:17:00;100443.25;;;24.39;41.42
16190;BME280;41754;51.498;7.540;2023-07-08T07:19:36;100443.34;;;24.46;40.10
16190;BME280;41754;51.498;7.540;2023-07-08T07:22:04;100441.41;;;24.55;40.45
16190;BME280;41754;51.498;7.540;2023-07-08T07:24:32;100439.22;;;24.80;40.49
16190;BME280;41754;51.498;7.540;2023-07-08T07:27:00;100444.81;;;25.00;40.01
16190;BME280;41754;51.498;7.540;2023-07-08T07:29:41;100440.38;;;25.07;39.62
16190;BME280;41754;51.498;7.540;2023-07-08T07:32:10;100436.69;;;25.15;38.67
16190;BME280;41754;51.498;7.540;2023-07-08T07:34:39;100441.94;;;25.23;38.98
16190;BME280;41754;51.498;7.540;2023-07-08T07:37:10;100439.03;;;25.40;39.11
16190;BME280;41754;51.498;7.540;2023-07-08T07:39:39;100449.16;;;25.59;39.07
16190;BME280;41754;51.498;7.540;2023-07-08T07:42:08;100448.28;;;25.59;38.92
16190;BME280;41754;51.498;7.540;2023-07-08T07:44:37;100448.88;;;25.82;38.50
16190;BME280;41754;51.498;7.540;2023-07-08T07:47:06;100454.63;;;26.01;38.25
16190;BME280;41754;51.498;7.540;2023-07-08T07:49:34;100452.44;;;26.11;38.55
16190;BME280;41754;51.498;7.540;2023-07-08T07:52:04;100451.72;;;26.31;37.76
16190;BME280;41754;51.498;7.540;2023-07-08T07:54:32;100451.59;;;26.52;37.55
16190;BME280;41754;51.498;7.540;2023-07-08T07:57:00;100456.31;;;26.37;36.22
16190;BME280;41754;51.498;7.540;2023-07-08T07:59:28;100444.59;;;26.64;37.07
16190;BME280;41754;51.498;7.540;2023-07-08T08:01:56;100451.97;;;26.91;36.35
16190;BME280;41754;51.498;7.540;2023-07-08T08:04:24;100454.06;;;26.89;36.54
16190;BME280;41754;51.498;7.540;2023-07-08T08:06:52;100450.09;;;26.98;35.50
16190;BME280;41754;51.498;7.540;2023-07-08T08:09:21;100452.84;;;27.18;34.73
16190;BME280;41754;51.498;7.540;2023-07-08T08:11:49;100447.25;;;27.26;34.41
16190;BME280;41754;51.498;7.540;2023-07-08T08:14:18;100452.69;;;27.39;34.63
16190;BME280;41754;51.498;7.540;2023-07-08T08:16:46;100457.69;;;27.69;34.07
16190;BME280;41754;51.498;7.540;2023-07-08T08:19:14;100459.56;;;27.62;34.58
16190;BME280;41754;51.498;7.540;2023-07-08T08:21:42;100458.72;;;27.68;34.04
16190;BME280;41754;51.498;7.540;2023-07-08T08:24:10;100456.66;;;27.77;32.87
16190;BME280;41754;51.498;7.540;2023-07-08T08:26:39;100457.66;;;28.09;32.26
16190;BME280;41754;51.498;7.540;2023-07-08T08:29:07;100462.03;;;28.17;30.52
16190;BME280;41754;51.498;7.540;2023-07-08T08:31:35;100458.72;;;27.95;30.61
16190;BME280;41754;51.498;7.540;2023-07-08T08:34:02;100458.94;;;27.73;30.81
16190;BME280;41754;51.498;7.540;2023-07-08T08:36:30;100462.88;;;28.11;31.13
16190;BME280;41754;51.498;7.540;2023-07-08T08:38:58;100461.09;;;28.57;30.91
16190;BME280;41754;51.498;7.540;2023-07-08T08:41:30;100461.81;;;28.77;31.52
16190;BME280;41754;51.498;7.540;2023-07-08T08:44:00;100458.72;;;28.74;32.00
16190;BME280;41754;51.498;7.540;2023-07-08T08:46:35;100467.84;;;28.21;31.66
16190;BME280;41754;51.498;7.540;2023-07-08T08:49:16;100467.78;;;28.47;29.36
16190;BME280;41754;51.498;7.540;2023-07-08T08:51:46;100460.41;;;28.68;28.10
16190;BME280;41754;51.498;7.540;2023-07-08T08:54:15;100461.63;;;28.72;27.35
16190;BME280;41754;51.498;7.540;2023-07-08T08:56:49;100464.47;;;28.84;27.16
16190;BME280;41754;51.498;7.540;2023-07-08T08:59:26;100469.63;;;28.99;27.38
16190;BME280;41754;51.498;7.540;2023-07-08T09:01:58;100468.22;;;29.28;26.37
16190;BME280;41754;51.498;7.540;2023-07-08T09:04:32;100459.50;;;29.26;27.08
16190;BME280;41754;51.498;7.540;2023-07-08T09:07:06;100466.19;;;29.74;27.35
16190;BME280;41754;51.498;7.540;2023-07-08T09:09:39;100464.97;;;29.70;25.48
16190;BME280;41754;51.498;7.540;2023-07-08T09:12:12;100469.97;;;29.41;26.17
16190;BME280;41754;51.498;7.540;2023-07-08T09:14:46;100468.75;;;29.05;25.57
16190;BME280;41754;51.498;7.540;2023-07-08T09:17:17;100462.56;;;28.98;25.92
16190;BME280;41754;51.498;7.540;2023-07-08T09:19:51;100457.03;;;29.18;26.64
16190;BME280;41754;51.498;7.540;2023-07-08T09:22:35;100468.50;;;29.45;26.80
16190;BME280;41754;51.498;7.540;2023-07-08T09:25:15;100462.22;;;29.51;25.48
16190;BME280;41754;51.498;7.540;2023-07-08T09:27:47;100462.78;;;29.85;25.63
16190;BME280;41754;51.498;7.540;2023-07-08T09:30:18;100459.56;;;29.70;26.16
16190;BME280;41754;51.498;7.540;2023-07-08T09:32:47;100463.84;;;30.03;25.09
16190;BME280;41754;51.498;7.540;2023-07-08T09:35:18;100462.34;;;30.07;27.06
16190;BME280;41754;51.498;7.540;2023-07-08T09:37:48;100464.38;;;30.30;27.32
16190;BME280;41754;51.498;7.540;2023-07-08T09:40:18;100466.72;;;30.45;25.04
16190;BME280;41754;51.498;7.540;2023-07-08T09:42:50;100461.38;;;31.05;25.27
16190;BME280;41754;51.498;7.540;2023-07-08T09:45:22;100461.66;;;31.28;22.95
16190;BME280;41754;51.498;7.540;2023-07-08T09:47:52;100464.19;;;30.99;25.06
16190;BME280;41754;51.498;7.540;2023-07-08T09:50:24;100466.94;;;30.80;25.07
16190;BME280;41754;51.498;7.540;2023-07-08T09:52:56;100456.22;;;31.16;24.81
16190;BME280;41754;51.498;7.540;2023-07-08T09:55:26;100459.50;;;31.18;23.94
16190;BME280;41754;51.498;7.540;2023-07-08T09:57:56;100455.84;;;31.12;23.96
16190;BME280;41754;51.498;7.540;2023-07-08T10:00:39;100459.78;;;31.28;24.73
16190;BME280;41754;51.498;7.540;2023-07-08T10:03:12;100451.22;;;31.13;24.08
16190;BME280;41754;51.498;7.540;2023-07-08T10:05:46;100457.75;;;31.23;24.12
16190;BME280;41754;51.498;7.540;2023-07-08T10:08:17;100462.03;;;31.31;24.00
16190;BME280;41754;51.498;7.540;2023-07-08T10:10:47;100466.13;;;30.92;23.73
16190;BME280;41754;51.498;7.540;2023-07-08T10:13:21;100455.25;;;31.22;23.42
16190;BME280;41754;51.498;7.540;2023-07-08T10:15:55;100477.06;;;31.03;22.38
16190;BME280;41754;51.498;7.540;2023-07-08T10:18:27;100471.41;;;31.05;22.70
16190;BME280;41754;51.498;7.540;2023-07-08T10:21:02;100468.50;;;31.30;22.59
16190;BME280;41754;51.498;7.540;2023-07-08T10:23:41;100464.06;;;31.48;22.45
16190;BME280;41754;51.498;7.540;2023-07-08T10:26:14;100466.03;;;31.29;22.00
16190;BME280;41754;51.498;7.540;2023-07-08T10:28:53;100464.94;;;31.60;20.65
16190;BME280;41754;51.498;7.540;2023-07-08T10:31:31;100454.88;;;31.72;21.49
16190;BME280;41754;51.498;7.540;2023-07-08T10:34:19;100468.00;;;31.75;23.22
16190;BME280;41754;51.498;7.540;2023-07-08T10:36:52;100476.53;;;31.91;21.63
16190;BME280;41754;51.498;7.540;2023-07-08T10:42:36;100456.41;;;31.92;21.98
16190;BME280;41754;51.498;7.540;2023-07-08T10:45:12;100463.44;;;32.64;21.75
16190;BME280;41754;51.498;7.540;2023-07-08T10:47:54;100463.19;;;32.65;20.95
16190;BME280;41754;51.498;7.540;2023-07-08T10:50:39;100456.41;;;33.25;21.85
16190;BME280;41754;51.498;7.540;2023-07-08T10:53:35;100447.66;;;32.66;21.67
16190;BME280;41754;51.498;7.540;2023-07-08T10:56:10;100457.31;;;32.85;20.15
16190;BME280;41754;51.498;7.540;2023-07-08T11:02:01;100449.28;;;33.24;20.44
16190;BME280;41754;51.498;7.540;2023-07-08T11:04:42;100456.97;;;34.17;23.23
16190;BME280;41754;51.498;7.540;2023-07-08T11:07:32;100441.72;;;36.48;19.20
16190;BME280;41754;51.498;7.540;2023-07-08T11:10:11;100436.81;;;36.55;16.79
16190;BME280;41754;51.498;7.540;2023-07-08T11:12:46;100440.28;;;35.77;18.15
16190;BME280;41754;51.498;7.540;2023-07-08T11:15:19;100432.28;;;35.33;18.15
16190;BME280;41754;51.498;7.540;2023-07-08T11:17:57;100436.09;;;35.32;17.02
16190;BME280;41754;51.498;7.540;2023-07-08T11:20:37;100431.78;;;36.27;17.96
16190;BME280;41754;51.498;7.540;2023-07-08T11:23:16;100432.56;;;37.26;16.36
16190;BME280;41754;51.498;7.540;2023-07-08T11:25:48;100428.41;;;37.70;15.73
16190;BME280;41754;51.498;7.540;2023-07-08T11:28:19;100424.41;;;38.12;15.93
16190;BME280;41754;51.498;7.540;2023-07-08T11:30:50;100430.84;;;38.97;13.70
16190;BME280;41754;51.498;7.540;2023-07-08T11:33:21;100418.69;;;38.03;15.07
16190;BME280;41754;51.498;7.540;2023-07-08T11:35:54;100424.41;;;38.17;14.47
16190;BME280;41754;51.498;7.540;2023-07-08T11:38:25;100426.28;;;38.32;14.92
16190;BME280;41754;51.498;7.540;2023-07-08T11:40:55;100414.81;;;38.15;14.16
16190;BME280;41754;51.498;7.540;2023-07-08T11:43:26;100420.78;;;38.32;13.68
16190;BME280;41754;51.498;7.540;2023-07-08T11:45:56;100422.72;;;38.82;13.96
16190;BME280;41754;51.498;7.540;2023-07-08T11:48:27;100412.72;;;37.86;14.56
16190;BME280;41754;51.498;7.540;2023-07-08T11:50:58;100405.19;;;38.07;14.52
16190;BME280;41754;51.498;7.540;2023-07-08T11:53:35;100408.84;;;38.52;14.25
16190;BME280;41754;51.498;7.540;2023-07-08T11:56:18;100404.78;;;38.39;13.74
16190;BME280;41754;51.498;7.540;2023-07-08T11:58:57;100403.28;;;40.14;13.04
16190;BME280;41754;51.498;7.540;2023-07-08T12:01:27;100400.97;;;39.73;12.29
16190;BME280;41754;51.498;7.540;2023-07-08T12:04:00;100404.22;;;39.22;13.98
16190;BME280;41754;51.498;7.540;2023-07-08T12:06:47;100403.03;;;39.62;14.21
16190;BME280;41754;51.498;7.540;2023-07-08T12:09:23;100399.63;;;38.77;13.55
16190;BME280;41754;51.498;7.540;2023-07-08T12:11:55;100393.44;;;39.84;12.46
16190;BME280;41754;51.498;7.540;2023-07-08T12:14:25;100389.13;;;40.21;12.31
16190;BME280;41754;51.498;7.540;2023-07-08T12:16:55;100391.38;;;40.38;12.40
16190;BME280;41754;51.498;7.540;2023-07-08T12:19:25;100392.13;;;39.52;13.83
16190;BME280;41754;51.498;7.540;2023-07-08T12:21:59;100389.56;;;40.85;11.58
16190;BME280;41754;51.498;7.540;2023-07-08T12:24:27;100386.22;;;40.50;12.56
16190;BME280;41754;51.498;7.540;2023-07-08T12:26:55;100385.53;;;40.96;12.82
16190;BME280;41754;51.498;7.540;2023-07-08T12:29:23;100383.59;;;41.44;11.81
16190;BME280;41754;51.498;7.540;2023-07-08T12:31:52;100379.22;;;41.57;12.75
16190;BME280;41754;51.498;7.540;2023-07-08T12:34:21;100373.69;;;42.12;12.05
16190;BME280;41754;51.498;7.540;2023-07-08T12:36:53;100377.47;;;41.47;12.47
16190;BME280;41754;51.498;7.540;2023-07-08T12:39:23;100379.03;;;41.20;11.96
16190;BME280;41754;51.498;7.540;2023-07-08T12:41:51;100373.75;;;40.72;11.82
16190;BME280;41754;51.498;7.540;2023-07-08T12:44:21;100367.13;;;39.92;12.78
16190;BME280;41754;51.498;7.540;2023-07-08T12:46:52;100366.94;;;41.02;12.63
16190;BME280;41754;51.498;7.540;2023-07-08T12:49:21;100381.09;;;42.39;10.76
16190;BME280;41754;51.498;7.540;2023-07-08T12:51:53;100371.31;;;42.05;11.76
16190;BME280;41754;51.498;7.540;2023-07-08T12:54:22;100376.97;;;41.86;10.80
16190;BME280;41754;51.498;7.540;2023-07-08T12:56:50;100379.72;;;40.98;11.50
16190;BME280;41754;51.498;7.540;2023-07-08T12:59:21;100377.44;;;40.86;12.53
16190;BME280;41754;51.498;7.540;2023-07-08T13:01:52;100378.63;;;40.61;12.00
16190;BME280;41754;51.498;7.540;2023-07-08T13:04:20;100374.72;;;41.47;10.69
16190;BME280;41754;51.498;7.540;2023-07-08T13:06:48;100372.06;;;41.23;12.11
16190;BME280;41754;51.498;7.540;2023-07-08T13:09:39;100368.84;;;41.34;10.75
16190;BME280;41754;51.498;7.540;2023-07-08T13:12:13;100373.97;;;41.27;11.65
16190;BME280;41754;51.498;7.540;2023-07-08T13:14:43;100374.69;;;42.75;10.00